Waterloo, Belgium
Current Conditions -  °F | °C
As of 8:20 PM on Saturday 20 Dec 2014 (Local Time) from EBBR Reporting Station
Broken Clouds Broken Clouds  
Wind Chill: 38°   Ceiling: 2300
Heat Index: 45°   Visibility: 6mi
Dew Point: 41°   Wind: 13mph
Humidity: 87%   Direction: 270°W
Pressure: 30.33"   Gusts: NA
Location:  50.71°N, 4.4°E
Report Text: EBBR 201920Z 27011KT 9999 SCT036 BKN023 07/05 Q1027 NOSIG
Loading
Personal Weather Stations






























Interactive Weather Map New forecast layout! Learn more

10-Day Weather Forecast

Advertisements
Track Severe Weather on mobile